sensor_id;sensor_type;location;lat;lon;timestamp;temperature;humidity
38622;DHT22;24380;51.132;5.360;2023-04-24T00:02:07;9.70;99.90
38622;DHT22;24380;51.132;5.360;2023-04-24T00:04:37;9.60;99.90
38622;DHT22;24380;51.132;5.360;2023-04-24T00:07:08;9.60;99.90
38622;DHT22;24380;51.132;5.360;2023-04-24T00:09:35;9.60;99.90
38622;DHT22;24380;51.132;5.360;2023-04-24T00:12:03;9.60;99.90
38622;DHT22;24380;51.132;5.360;2023-04-24T00:14:32;9.60;99.90
38622;DHT22;24380;51.132;5.360;2023-04-24T00:16:59;9.60;99.90
38622;DHT22;24380;51.132;5.360;2023-04-24T00:19:27;9.60;99.90
38622;DHT22;24380;51.132;5.360;2023-04-24T00:21:55;9.50;99.90
38622;DHT22;24380;51.132;5.360;2023-04-24T00:24:22;9.60;99.90
38622;DHT22;24380;51.132;5.360;2023-04-24T00:26:50;9.50;99.90
38622;DHT22;24380;51.132;5.360;2023-04-24T00:29:17;9.50;99.90
38622;DHT22;24380;51.132;5.360;2023-04-24T00:31:45;9.50;99.90
38622;DHT22;24380;51.132;5.360;2023-04-24T00:34:12;9.60;99.90
38622;DHT22;24380;51.132;5.360;2023-04-24T00:36:40;9.60;99.90
38622;DHT22;24380;51.132;5.360;2023-04-24T00:39:07;9.60;99.90
38622;DHT22;24380;51.132;5.360;2023-04-24T00:41:38;9.60;99.90
38622;DHT22;24380;51.132;5.360;2023-04-24T00:44:06;9.70;99.90
38622;DHT22;24380;51.132;5.360;2023-04-24T00:46:33;9.70;99.90
38622;DHT22;24380;51.132;5.360;2023-04-24T00:49:02;9.70;99.90
38622;DHT22;24380;51.132;5.360;2023-04-24T00:51:29;9.50;99.90
38622;DHT22;24380;51.132;5.360;2023-04-24T00:53:59;9.60;99.90
38622;DHT22;24380;51.132;5.360;2023-04-24T00:56:28;9.50;99.90
38622;DHT22;24380;51.132;5.360;2023-04-24T00:58:56;9.60;99.90
38622;DHT22;24380;51.132;5.360;2023-04-24T01:01:23;9.50;99.90
38622;DHT22;24380;51.132;5.360;2023-04-24T01:03:51;9.60;99.90
38622;DHT22;24380;51.132;5.360;2023-04-24T01:06:20;9.50;99.90
38622;DHT22;24380;51.132;5.360;2023-04-24T01:08:50;9.50;99.90
38622;DHT22;24380;51.132;5.360;2023-04-24T01:11:18;9.50;99.90
38622;DHT22;24380;51.132;5.360;2023-04-24T01:13:47;9.50;99.90
38622;DHT22;24380;51.132;5.360;2023-04-24T01:16:15;9.50;99.90
38622;DHT22;24380;51.132;5.360;2023-04-24T01:18:44;9.50;99.90
38622;DHT22;24380;51.132;5.360;2023-04-24T01:21:14;9.50;99.90
38622;DHT22;24380;51.132;5.360;2023-04-24T01:23:44;9.50;99.90
38622;DHT22;24380;51.132;5.360;2023-04-24T01:26:17;9.40;99.90
38622;DHT22;24380;51.132;5.360;2023-04-24T01:28:43;9.50;99.90
38622;DHT22;24380;51.132;5.360;2023-04-24T01:31:10;9.50;99.90
38622;DHT22;24380;51.132;5.360;2023-04-24T01:33:38;9.50;99.90
38622;DHT22;24380;51.132;5.360;2023-04-24T01:36:06;9.50;99.90
38622;DHT22;24380;51.132;5.360;2023-04-24T01:38:34;9.50;99.90
38622;DHT22;24380;51.132;5.360;2023-04-24T01:41:01;9.50;99.90
38622;DHT22;24380;51.132;5.360;2023-04-24T01:43:29;9.50;99.90
38622;DHT22;24380;51.132;5.360;2023-04-24T01:45:57;9.50;99.90
38622;DHT22;24380;51.132;5.360;2023-04-24T01:48:24;9.50;99.90
38622;DHT22;24380;51.132;5.360;2023-04-24T01:50:52;9.50;99.90
38622;DHT22;24380;51.132;5.360;2023-04-24T01:53:20;9.60;99.90
38622;DHT22;24380;51.132;5.360;2023-04-24T01:55:48;9.60;99.90
38622;DHT22;24380;51.132;5.360;2023-04-24T01:58:15;9.60;99.90
38622;DHT22;24380;51.132;5.360;2023-04-24T02:00:43;9.60;99.90
38622;DHT22;24380;51.132;5.360;2023-04-24T02:03:10;9.60;99.90
38622;DHT22;24380;51.132;5.360;2023-04-24T02:05:38;9.50;99.90
38622;DHT22;24380;51.132;5.360;2023-04-24T02:08:05;9.50;99.90
38622;DHT22;24380;51.132;5.360;2023-04-24T02:10:33;9.50;99.90
38622;DHT22;24380;51.132;5.360;2023-04-24T02:13:00;9.50;99.90
38622;DHT22;24380;51.132;5.360;2023-04-24T02:15:28;9.50;99.90
38622;DHT22;24380;51.132;5.360;2023-04-24T02:17:56;9.50;99.90
38622;DHT22;24380;51.132;5.360;2023-04-24T02:20:24;9.50;99.90
38622;DHT22;24380;51.132;5.360;2023-04-24T02:22:51;9.50;99.90
38622;DHT22;24380;51.132;5.360;2023-04-24T02:25:19;9.60;99.90
38622;DHT22;24380;51.132;5.360;2023-04-24T02:27:46;9.60;99.90
38622;DHT22;24380;51.132;5.360;2023-04-24T02:30:14;9.60;99.90
38622;DHT22;24380;51.132;5.360;2023-04-24T02:32:41;9.50;99.90
38622;DHT22;24380;51.132;5.360;2023-04-24T02:35:09;9.60;99.90
38622;DHT22;24380;51.132;5.360;2023-04-24T02:37:36;9.50;99.90
38622;DHT22;24380;51.132;5.360;2023-04-24T02:40:05;9.60;99.90
38622;DHT22;24380;51.132;5.360;2023-04-24T02:42:33;9.50;99.90
38622;DHT22;24380;51.132;5.360;2023-04-24T02:45:01;9.40;99.90
38622;DHT22;24380;51.132;5.360;2023-04-24T02:47:28;9.40;99.90
38622;DHT22;24380;51.132;5.360;2023-04-24T02:49:56;9.40;99.90
38622;DHT22;24380;51.132;5.360;2023-04-24T02:52:23;9.50;99.90
38622;DHT22;24380;51.132;5.360;2023-04-24T02:54:51;9.50;99.90
38622;DHT22;24380;51.132;5.360;2023-04-24T02:57:20;9.60;99.90
38622;DHT22;24380;51.132;5.360;2023-04-24T02:59:47;9.50;99.90
38622;DHT22;24380;51.132;5.360;2023-04-24T03:02:15;9.50;99.90
38622;DHT22;24380;51.132;5.360;2023-04-24T03:04:42;9.40;99.90
38622;DHT22;24380;51.132;5.360;2023-04-24T03:07:10;9.30;99.90
38622;DHT22;24380;51.132;5.360;2023-04-24T03:09:38;9.20;99.90
38622;DHT22;24380;51.132;5.360;2023-04-24T03:12:06;9.10;99.90
38622;DHT22;24380;51.132;5.360;2023-04-24T03:14:33;9.10;99.90
38622;DHT22;24380;51.132;5.360;2023-04-24T03:17:01;9.10;99.90
38622;DHT22;24380;51.132;5.360;2023-04-24T03:19:28;9.10;99.90
38622;DHT22;24380;51.132;5.360;2023-04-24T03:21:56;9.00;99.90
38622;DHT22;24380;51.132;5.360;2023-04-24T03:24:23;9.00;99.90
38622;DHT22;24380;51.132;5.360;2023-04-24T03:26:51;8.90;99.90
38622;DHT22;24380;51.132;5.360;2023-04-24T03:29:18;8.80;99.90
38622;DHT22;24380;51.132;5.360;2023-04-24T03:31:46;8.80;99.90
38622;DHT22;24380;51.132;5.360;2023-04-24T03:34:13;8.80;99.90
38622;DHT22;24380;51.132;5.360;2023-04-24T03:36:41;8.80;99.90
38622;DHT22;24380;51.132;5.360;2023-04-24T03:39:08;8.80;99.90
38622;DHT22;24380;51.132;5.360;2023-04-24T03:41:36;8.70;99.90
38622;DHT22;24380;51.132;5.360;2023-04-24T03:44:04;8.60;99.90
38622;DHT22;24380;51.132;5.360;2023-04-24T03:46:31;8.60;99.90
38622;DHT22;24380;51.132;5.360;2023-04-24T03:48:59;8.60;99.90
38622;DHT22;24380;51.132;5.360;2023-04-24T03:51:26;8.60;99.90
38622;DHT22;24380;51.132;5.360;2023-04-24T03:53:57;8.60;99.90
38622;DHT22;24380;51.132;5.360;2023-04-24T03:56:25;8.60;99.90
38622;DHT22;24380;51.132;5.360;2023-04-24T03:58:52;8.70;99.90
38622;DHT22;24380;51.132;5.360;2023-04-24T04:01:20;8.70;99.90
38622;DHT22;24380;51.132;5.360;2023-04-24T04:03:48;8.70;99.90
38622;DHT22;24380;51.132;5.360;2023-04-24T04:06:15;8.70;99.90
38622;DHT22;24380;51.132;5.360;2023-04-24T04:08:43;8.70;99.90
38622;DHT22;24380;51.132;5.360;2023-04-24T04:14:06;8.70;99.90
38622;DHT22;24380;51.132;5.360;2023-04-24T04:16:33;8.60;99.90
38622;DHT22;24380;51.132;5.360;2023-04-24T04:19:02;8.60;99.90
38622;DHT22;24380;51.132;5.360;2023-04-24T04:21:30;8.60;99.90
38622;DHT22;24380;51.132;5.360;2023-04-24T04:23:58;8.50;99.90
38622;DHT22;24380;51.132;5.360;2023-04-24T04:26:26;8.50;99.90
38622;DHT22;24380;51.132;5.360;2023-04-24T04:28:53;8.50;99.90
38622;DHT22;24380;51.132;5.360;2023-04-24T04:31:21;8.50;99.90
38622;DHT22;24380;51.132;5.360;2023-04-24T04:33:49;8.60;99.90
38622;DHT22;24380;51.132;5.360;2023-04-24T04:36:17;8.60;99.90
38622;DHT22;24380;51.132;5.360;2023-04-24T04:38:45;8.60;99.90
38622;DHT22;24380;51.132;5.360;2023-04-24T04:41:13;8.70;99.90
38622;DHT22;24380;51.132;5.360;2023-04-24T04:43:40;8.80;99.90
38622;DHT22;24380;51.132;5.360;2023-04-24T04:46:09;8.80;99.90
38622;DHT22;24380;51.132;5.360;2023-04-24T04:48:37;8.80;99.90
38622;DHT22;24380;51.132;5.360;2023-04-24T04:51:06;8.70;99.90
38622;DHT22;24380;51.132;5.360;2023-04-24T04:53:33;8.70;99.90
38622;DHT22;24380;51.132;5.360;2023-04-24T04:56:01;8.70;99.90
38622;DHT22;24380;51.132;5.360;2023-04-24T04:58:29;8.80;99.90
38622;DHT22;24380;51.132;5.360;2023-04-24T05:00:57;8.80;99.90
38622;DHT22;24380;51.132;5.360;2023-04-24T05:03:25;8.80;99.90
38622;DHT22;24380;51.132;5.360;2023-04-24T05:05:52;8.90;99.90
38622;DHT22;24380;51.132;5.360;2023-04-24T05:08:20;8.90;99.90
38622;DHT22;24380;51.132;5.360;2023-04-24T05:10:47;8.90;99.90
38622;DHT22;24380;51.132;5.360;2023-04-24T05:13:15;8.80;99.90
38622;DHT22;24380;51.132;5.360;2023-04-24T05:15:42;8.70;99.90
38622;DHT22;24380;51.132;5.360;2023-04-24T05:18:10;8.80;99.90
38622;DHT22;24380;51.132;5.360;2023-04-24T05:20:37;8.70;99.90
38622;DHT22;24380;51.132;5.360;2023-04-24T05:23:05;8.70;99.90
38622;DHT22;24380;51.132;5.360;2023-04-24T05:25:33;8.70;99.90
38622;DHT22;24380;51.132;5.360;2023-04-24T05:28:02;8.70;99.90
38622;DHT22;24380;51.132;5.360;2023-04-24T05:30:29;8.70;99.90
38622;DHT22;24380;51.132;5.360;2023-04-24T05:32:57;8.70;99.90
38622;DHT22;24380;51.132;5.360;2023-04-24T05:35:24;8.60;99.90
38622;DHT22;24380;51.132;5.360;2023-04-24T05:37:52;8.70;99.90
38622;DHT22;24380;51.132;5.360;2023-04-24T05:40:19;8.70;99.90
38622;DHT22;24380;51.132;5.360;2023-04-24T05:42:47;8.80;99.90
38622;DHT22;24380;51.132;5.360;2023-04-24T05:45:15;8.80;99.90
38622;DHT22;24380;51.132;5.360;2023-04-24T05:47:43;8.80;99.90
38622;DHT22;24380;51.132;5.360;2023-04-24T05:50:12;8.70;99.90
38622;DHT22;24380;51.132;5.360;2023-04-24T05:52:40;8.60;99.90
38622;DHT22;24380;51.132;5.360;2023-04-24T05:55:07;8.60;99.90
38622;DHT22;24380;51.132;5.360;2023-04-24T05:57:35;8.60;99.90
38622;DHT22;24380;51.132;5.360;2023-04-24T06:00:03;8.60;99.90
38622;DHT22;24380;51.132;5.360;2023-04-24T06:02:31;8.70;99.90
38622;DHT22;24380;51.132;5.360;2023-04-24T06:04:59;8.60;99.90
38622;DHT22;24380;51.132;5.360;2023-04-24T06:07:26;8.70;99.90
38622;DHT22;24380;51.132;5.360;2023-04-24T06:09:54;8.80;99.90
38622;DHT22;24380;51.132;5.360;2023-04-24T06:12:22;8.80;99.90
38622;DHT22;24380;51.132;5.360;2023-04-24T06:14:50;8.80;99.90
38622;DHT22;24380;51.132;5.360;2023-04-24T06:17:17;8.70;99.90
38622;DHT22;24380;51.132;5.360;2023-04-24T06:19:45;8.70;99.90
38622;DHT22;24380;51.132;5.360;2023-04-24T06:22:13;8.50;99.90
38622;DHT22;24380;51.132;5.360;2023-04-24T06:24:41;8.40;99.90
38622;DHT22;24380;51.132;5.360;2023-04-24T06:27:09;8.40;99.90
38622;DHT22;24380;51.132;5.360;2023-04-24T06:29:36;8.40;99.90
38622;DHT22;24380;51.132;5.360;2023-04-24T06:32:04;8.40;99.90
38622;DHT22;24380;51.132;5.360;2023-04-24T06:34:31;8.40;99.90
38622;DHT22;24380;51.132;5.360;2023-04-24T06:37:02;8.40;99.90
38622;DHT22;24380;51.132;5.360;2023-04-24T06:39:29;8.40;99.90
38622;DHT22;24380;51.132;5.360;2023-04-24T06:41:57;8.40;99.90
38622;DHT22;24380;51.132;5.360;2023-04-24T06:44:24;8.40;99.90
38622;DHT22;24380;51.132;5.360;2023-04-24T06:46:52;8.20;99.90
38622;DHT22;24380;51.132;5.360;2023-04-24T06:49:19;8.20;99.90
38622;DHT22;24380;51.132;5.360;2023-04-24T06:51:47;8.20;99.90
38622;DHT22;24380;51.132;5.360;2023-04-24T06:54:14;8.20;99.90
38622;DHT22;24380;51.132;5.360;2023-04-24T06:56:42;8.20;99.90
38622;DHT22;24380;51.132;5.360;2023-04-24T06:59:11;8.20;99.90
38622;DHT22;24380;51.132;5.360;2023-04-24T07:01:39;8.10;99.90
38622;DHT22;24380;51.132;5.360;2023-04-24T07:04:06;8.10;99.90
38622;DHT22;24380;51.132;5.360;2023-04-24T07:06:34;8.00;99.90
38622;DHT22;24380;51.132;5.360;2023-04-24T07:09:02;8.10;99.90
38622;DHT22;24380;51.132;5.360;2023-04-24T07:11:30;8.20;99.90
38622;DHT22;24380;51.132;5.360;2023-04-24T07:13:58;8.10;99.90
38622;DHT22;24380;51.132;5.360;2023-04-24T07:16:25;8.00;99.90
38622;DHT22;24380;51.132;5.360;2023-04-24T07:18:53;8.10;99.90
38622;DHT22;24380;51.132;5.360;2023-04-24T07:21:20;8.10;99.90
38622;DHT22;24380;51.132;5.360;2023-04-24T07:23:48;8.10;99.90
38622;DHT22;24380;51.132;5.360;2023-04-24T07:26:16;8.10;99.90
38622;DHT22;24380;51.132;5.360;2023-04-24T07:28:44;8.10;99.90
38622;DHT22;24380;51.132;5.360;2023-04-24T07:31:11;8.20;99.90
38622;DHT22;24380;51.132;5.360;2023-04-24T07:33:39;8.30;99.90
38622;DHT22;24380;51.132;5.360;2023-04-24T07:36:07;8.30;99.90
38622;DHT22;24380;51.132;5.360;2023-04-24T07:38:34;8.40;99.90
38622;DHT22;24380;51.132;5.360;2023-04-24T07:41:02;8.50;99.90
38622;DHT22;24380;51.132;5.360;2023-04-24T07:43:29;8.50;99.90
38622;DHT22;24380;51.132;5.360;2023-04-24T07:45:57;8.40;99.90
38622;DHT22;24380;51.132;5.360;2023-04-24T07:48:25;8.40;99.90
38622;DHT22;24380;51.132;5.360;2023-04-24T07:50:53;8.40;99.90
38622;DHT22;24380;51.132;5.360;2023-04-24T07:53:21;8.50;99.90
38622;DHT22;24380;51.132;5.360;2023-04-24T07:55:49;8.50;99.90
38622;DHT22;24380;51.132;5.360;2023-04-24T07:58:16;8.60;99.90
38622;DHT22;24380;51.132;5.360;2023-04-24T08:00:44;8.60;99.90
38622;DHT22;24380;51.132;5.360;2023-04-24T08:03:11;8.60;99.90
38622;DHT22;24380;51.132;5.360;2023-04-24T08:05:39;8.60;99.90
38622;DHT22;24380;51.132;5.360;2023-04-24T08:08:09;8.60;99.90
38622;DHT22;24380;51.132;5.360;2023-04-24T08:10:36;8.60;99.90
38622;DHT22;24380;51.132;5.360;2023-04-24T08:13:04;8.70;99.90
38622;DHT22;24380;51.132;5.360;2023-04-24T08:15:31;8.70;99.90
38622;DHT22;24380;51.132;5.360;2023-04-24T08:17:59;8.70;99.90
38622;DHT22;24380;51.132;5.360;2023-04-24T08:20:26;8.70;99.90
38622;DHT22;24380;51.132;5.360;2023-04-24T08:22:54;8.70;99.90
38622;DHT22;24380;51.132;5.360;2023-04-24T08:25:23;8.80;99.90
38622;DHT22;24380;51.132;5.360;2023-04-24T08:27:51;9.00;99.90
38622;DHT22;24380;51.132;5.360;2023-04-24T08:30:19;9.00;99.90
38622;DHT22;24380;51.132;5.360;2023-04-24T08:32:47;9.00;99.90
38622;DHT22;24380;51.132;5.360;2023-04-24T08:35:14;9.10;99.90
38622;DHT22;24380;51.132;5.360;2023-04-24T08:37:42;9.20;99.90
38622;DHT22;24380;51.132;5.360;2023-04-24T08:40:14;9.40;99.90
38622;DHT22;24380;51.132;5.360;2023-04-24T08:42:43;9.30;99.90
38622;DHT22;24380;51.132;5.360;2023-04-24T08:45:12;9.30;99.90
38622;DHT22;24380;51.132;5.360;2023-04-24T08:47:41;9.30;99.90
38622;DHT22;24380;51.132;5.360;2023-04-24T08:50:09;9.40;99.90
38622;DHT22;24380;51.132;5.360;2023-04-24T08:52:37;9.60;99.90
38622;DHT22;24380;51.132;5.360;2023-04-24T08:55:05;9.70;99.90
38622;DHT22;24380;51.132;5.360;2023-04-24T08:57:33;9.80;99.90
38622;DHT22;24380;51.132;5.360;2023-04-24T09:00:03;9.70;99.90
38622;DHT22;24380;51.132;5.360;2023-04-24T09:02:31;9.90;99.90
38622;DHT22;24380;51.132;5.360;2023-04-24T09:05:01;9.90;99.90
38622;DHT22;24380;51.132;5.360;2023-04-24T09:07:31;9.90;99.90
38622;DHT22;24380;51.132;5.360;2023-04-24T09:09:59;10.00;99.90
38622;DHT22;24380;51.132;5.360;2023-04-24T09:12:28;10.00;99.90
38622;DHT22;24380;51.132;5.360;2023-04-24T09:14:57;10.10;99.90
38622;DHT22;24380;51.132;5.360;2023-04-24T09:17:25;10.10;99.90
38622;DHT22;24380;51.132;5.360;2023-04-24T09:19:55;10.00;99.90
38622;DHT22;24380;51.132;5.360;2023-04-24T09:22:23;9.90;99.90
38622;DHT22;24380;51.132;5.360;2023-04-24T09:25:02;9.90;99.90
38622;DHT22;24380;51.132;5.360;2023-04-24T09:27:32;10.10;99.90
38622;DHT22;24380;51.132;5.360;2023-04-24T09:30:00;10.30;99.90
38622;DHT22;24380;51.132;5.360;2023-04-24T09:32:28;10.50;99.90
38622;DHT22;24380;51.132;5.360;2023-04-24T09:35:14;10.80;99.90
38622;DHT22;24380;51.132;5.360;2023-04-24T09:37:44;11.10;99.90
38622;DHT22;24380;51.132;5.360;2023-04-24T09:40:16;11.30;99.90
38622;DHT22;24380;51.132;5.360;2023-04-24T09:42:52;11.40;99.90
38622;DHT22;24380;51.132;5.360;2023-04-24T09:45:21;11.60;99.90
38622;DHT22;24380;51.132;5.360;2023-04-24T09:47:52;11.70;99.90
38622;DHT22;24380;51.132;5.360;2023-04-24T09:50:21;11.50;99.90
38622;DHT22;24380;51.132;5.360;2023-04-24T09:53:05;11.40;99.90
38622;DHT22;24380;51.132;5.360;2023-04-24T09:55:40;11.20;99.90
38622;DHT22;24380;51.132;5.360;2023-04-24T09:58:08;11.10;99.90
38622;DHT22;24380;51.132;5.360;2023-04-24T10:00:37;10.90;99.90
38622;DHT22;24380;51.132;5.360;2023-04-24T10:03:05;10.90;99.90
38622;DHT22;24380;51.132;5.360;2023-04-24T10:05:34;10.70;99.90
38622;DHT22;24380;51.132;5.360;2023-04-24T10:08:04;10.60;99.90
38622;DHT22;24380;51.132;5.360;2023-04-24T10:10:33;10.60;99.90
38622;DHT22;24380;51.132;5.360;2023-04-24T10:13:00;10.50;99.90
38622;DHT22;24380;51.132;5.360;2023-04-24T10:15:28;10.50;99.90
38622;DHT22;24380;51.132;5.360;2023-04-24T10:18:00;10.50;99.90
38622;DHT22;24380;51.132;5.360;2023-04-24T10:20:29;10.50;99.90
38622;DHT22;24380;51.132;5.360;2023-04-24T10:22:58;10.60;99.90
38622;DHT22;24380;51.132;5.360;2023-04-24T10:25:28;10.70;99.90
38622;DHT22;24380;51.132;5.360;2023-04-24T10:27:57;10.80;99.90
38622;DHT22;24380;51.132;5.360;2023-04-24T10:30:28;10.80;99.90
38622;DHT22;24380;51.132;5.360;2023-04-24T10:32:56;10.80;99.90
38622;DHT22;24380;51.132;5.360;2023-04-24T10:35:24;10.90;99.90
38622;DHT22;24380;51.132;5.360;2023-04-24T10:38:13;10.80;99.90
38622;DHT22;24380;51.132;5.360;2023-04-24T10:40:34;10.80;99.90
38622;DHT22;24380;51.132;5.360;2023-04-24T10:43:06;10.80;99.90
38622;DHT22;24380;51.132;5.360;2023-04-24T10:45:36;10.80;99.90
38622;DHT22;24380;51.132;5.360;2023-04-24T10:48:05;10.80;99.90
38622;DHT22;24380;51.132;5.360;2023-04-24T10:50:52;10.60;99.90
38622;DHT22;24380;51.132;5.360;2023-04-24T10:53:22;10.40;99.90
38622;DHT22;24380;51.132;5.360;2023-04-24T10:56:09;10.30;99.90
38622;DHT22;24380;51.132;5.360;2023-04-24T10:58:45;10.30;99.90
38622;DHT22;24380;51.132;5.360;2023-04-24T11:01:29;10.40;99.90
38622;DHT22;24380;51.132;5.360;2023-04-24T11:04:02;10.60;99.90
38622;DHT22;24380;51.132;5.360;2023-04-24T11:06:36;10.90;99.90
38622;DHT22;24380;51.132;5.360;2023-04-24T11:09:09;11.20;99.90
38622;DHT22;24380;51.132;5.360;2023-04-24T11:11:44;11.30;99.90
38622;DHT22;24380;51.132;5.360;2023-04-24T11:14:08;11.50;99.90
38622;DHT22;24380;51.132;5.360;2023-04-24T11:19:25;12.10;99.90
38622;DHT22;24380;51.132;5.360;2023-04-24T11:22:04;12.30;99.90
38622;DHT22;24380;51.132;5.360;2023-04-24T11:24:49;12.40;99.90
38622;DHT22;24380;51.132;5.360;2023-04-24T11:27:21;12.30;99.90
38622;DHT22;24380;51.132;5.360;2023-04-24T11:35:17;12.00;99.90
38622;DHT22;24380;51.132;5.360;2023-04-24T11:37:47;11.90;99.90
38622;DHT22;24380;51.132;5.360;2023-04-24T11:40:19;11.70;99.90
38622;DHT22;24380;51.132;5.360;2023-04-24T11:42:51;11.50;99.90
38622;DHT22;24380;51.132;5.360;2023-04-24T11:45:26;11.30;99.90
38622;DHT22;24380;51.132;5.360;2023-04-24T11:47:53;11.30;99.90
38622;DHT22;24380;51.132;5.360;2023-04-24T11:50:23;11.50;99.90
38622;DHT22;24380;51.132;5.360;2023-04-24T11:52:53;11.60;99.90
38622;DHT22;24380;51.132;5.360;2023-04-24T11:57:57;11.60;99.90
38622;DHT22;24380;51.132;5.360;2023-04-24T12:00:28;11.60;99.90
38622;DHT22;24380;51.132;5.360;2023-04-24T12:03:08;11.60;99.90
38622;DHT22;24380;51.132;5.360;2023-04-24T12:05:35;11.80;99.90
38622;DHT22;24380;51.132;5.360;2023-04-24T12:08:03;12.10;99.90
38622;DHT22;24380;51.132;5.360;2023-04-24T12:10:32;12.50;99.90
38622;DHT22;24380;51.132;5.360;2023-04-24T12:13:01;12.60;99.90
38622;DHT22;24380;51.132;5.360;2023-04-24T12:15:28;12.50;99.90
38622;DHT22;24380;51.132;5.360;2023-04-24T12:17:56;12.50;99.90
38622;DHT22;24380;51.132;5.360;2023-04-24T12:20:32;12.40;99.90
38622;DHT22;24380;51.132;5.360;2023-04-24T12:23:00;12.30;99.90
38622;DHT22;24380;51.132;5.360;2023-04-24T12:25:30;12.60;99.90
38622;DHT22;24380;51.132;5.360;2023-04-24T12:30:46;12.40;99.90
38622;DHT22;24380;51.132;5.360;2023-04-24T12:33:21;12.40;99.90
38622;DHT22;24380;51.132;5.360;2023-04-24T12:35:53;12.30;99.90
38622;DHT22;24380;51.132;5.360;2023-04-24T12:38:26;12.20;99.90
38622;DHT22;24380;51.132;5.360;2023-04-24T12:41:03;12.20;99.90
38622;DHT22;24380;51.132;5.360;2023-04-24T12:43:33;12.10;99.90
38622;DHT22;24380;51.132;5.360;2023-04-24T12:46:02;12.00;99.90
38622;DHT22;24380;51.132;5.360;2023-04-24T12:48:29;12.00;99.90
38622;DHT22;24380;51.132;5.360;2023-04-24T12:50:58;12.10;99.90
38622;DHT22;24380;51.132;5.360;2023-04-24T12:53:28;11.80;99.90
38622;DHT22;24380;51.132;5.360;2023-04-24T12:55:57;11.90;99.90
38622;DHT22;24380;51.132;5.360;2023-04-24T12:58:25;12.20;99.90
38622;DHT22;24380;51.132;5.360;2023-04-24T13:00:52;12.50;99.90
38622;DHT22;24380;51.132;5.360;2023-04-24T13:03:20;12.80;99.90
38622;DHT22;24380;51.132;5.360;2023-04-24T13:05:48;12.60;99.90
38622;DHT22;24380;51.132;5.360;2023-04-24T13:08:16;12.70;99.90
38622;DHT22;24380;51.132;5.360;2023-04-24T13:10:44;12.50;99.90
38622;DHT22;24380;51.132;5.360;2023-04-24T13:13:11;12.50;99.90
38622;DHT22;24380;51.132;5.360;2023-04-24T13:15:39;12.60;99.90
38622;DHT22;24380;51.132;5.360;2023-04-24T13:18:07;12.50;99.90
38622;DHT22;24380;51.132;5.360;2023-04-24T13:20:34;12.30;99.90
38622;DHT22;24380;51.132;5.360;2023-04-24T13:23:02;12.50;99.90
38622;DHT22;24380;51.132;5.360;2023-04-24T13:25:34;12.60;99.90
38622;DHT22;24380;51.132;5.360;2023-04-24T13:27:59;12.50;99.90
38622;DHT22;24380;51.132;5.360;2023-04-24T13:30:27;12.50;99.90
38622;DHT22;24380;51.132;5.360;2023-04-24T13:32:54;12.60;99.90
38622;DHT22;24380;51.132;5.360;2023-04-24T13:35:22;12.60;99.90
38622;DHT22;24380;51.132;5.360;2023-04-24T13:37:49;12.80;99.90
38622;DHT22;24380;51.132;5.360;2023-04-24T13:40:17;12.80;99.90
38622;DHT22;24380;51.132;5.360;2023-04-24T13:42:45;12.90;99.90
38622;DHT22;24380;51.132;5.360;2023-04-24T13:45:12;13.10;99.90
38622;DHT22;24380;51.132;5.360;2023-04-24T13:47:40;13.10;99.90
38622;DHT22;24380;51.132;5.360;2023-04-24T13:50:09;13.10;99.90
38622;DHT22;24380;51.132;5.360;2023-04-24T13:52:36;13.00;99.90
38622;DHT22;24380;51.132;5.360;2023-04-24T13:55:23;13.00;99.90
38622;DHT22;24380;51.132;5.360;2023-04-24T13:57:51;13.30;99.90
38622;DHT22;24380;51.132;5.360;2023-04-24T14:00:20;13.30;99.90
38622;DHT22;24380;51.132;5.360;2023-04-24T14:02:48;13.20;99.90
38622;DHT22;24380;51.132;5.360;2023-04-24T14:05:16;13.30;99.90
38622;DHT22;24380;51.132;5.360;2023-04-24T14:07:44;13.20;99.90
38622;DHT22;24380;51.132;5.360;2023-04-24T14:10:12;13.20;99.90
38622;DHT22;24380;51.132;5.360;2023-04-24T14:12:40;13.40;99.90
38622;DHT22;24380;51.132;5.360;2023-04-24T14:15:08;13.30;99.90
38622;DHT22;24380;51.132;5.360;2023-04-24T14:17:36;12.90;99.90
38622;DHT22;24380;51.132;5.360;2023-04-24T14:20:04;12.90;99.90
38622;DHT22;24380;51.132;5.360;2023-04-24T14:22:33;12.90;99.90
38622;DHT22;24380;51.132;5.360;2023-04-24T14:25:00;13.00;99.90
38622;DHT22;24380;51.132;5.360;2023-04-24T14:27:28;13.30;99.90
38622;DHT22;24380;51.132;5.360;2023-04-24T14:29:56;13.30;99.90
38622;DHT22;24380;51.132;5.360;2023-04-24T14:32:24;13.40;99.90
38622;DHT22;24380;51.132;5.360;2023-04-24T14:34:52;13.40;99.90
38622;DHT22;24380;51.132;5.360;2023-04-24T14:37:20;13.40;99.90
38622;DHT22;24380;51.132;5.360;2023-04-24T14:39:47;13.30;99.90
38622;DHT22;24380;51.132;5.360;2023-04-24T14:42:15;13.00;99.90
38622;DHT22;24380;51.132;5.360;2023-04-24T14:44:43;12.80;99.90
38622;DHT22;24380;51.132;5.360;2023-04-24T14:47:11;12.80;99.90
38622;DHT22;24380;51.132;5.360;2023-04-24T14:49:38;12.70;99.90
38622;DHT22;24380;51.132;5.360;2023-04-24T14:52:06;12.80;99.90
38622;DHT22;24380;51.132;5.360;2023-04-24T14:54:33;12.70;99.90
38622;DHT22;24380;51.132;5.360;2023-04-24T14:57:01;12.80;99.90
38622;DHT22;24380;51.132;5.360;2023-04-24T14:59:29;12.80;99.90
38622;DHT22;24380;51.132;5.360;2023-04-24T15:01:57;13.00;99.90
38622;DHT22;24380;51.132;5.360;2023-04-24T15:04:25;13.10;99.90
38622;DHT22;24380;51.132;5.360;2023-04-24T15:06:53;13.20;99.90
38622;DHT22;24380;51.132;5.360;2023-04-24T15:09:21;13.10;99.90
38622;DHT22;24380;51.132;5.360;2023-04-24T15:11:49;13.00;99.90
38622;DHT22;24380;51.132;5.360;2023-04-24T15:14:17;13.00;99.90
38622;DHT22;24380;51.132;5.360;2023-04-24T15:16:45;13.00;99.90
38622;DHT22;24380;51.132;5.360;2023-04-24T15:19:12;13.10;99.90
38622;DHT22;24380;51.132;5.360;2023-04-24T15:21:40;13.00;99.90
38622;DHT22;24380;51.132;5.360;2023-04-24T15:24:09;12.90;99.90
38622;DHT22;24380;51.132;5.360;2023-04-24T15:26:36;12.90;99.90
38622;DHT22;24380;51.132;5.360;2023-04-24T15:29:04;13.00;99.90
38622;DHT22;24380;51.132;5.360;2023-04-24T15:31:31;13.20;99.90
38622;DHT22;24380;51.132;5.360;2023-04-24T15:33:59;13.20;99.90
38622;DHT22;24380;51.132;5.360;2023-04-24T15:36:26;13.20;99.90
38622;DHT22;24380;51.132;5.360;2023-04-24T15:38:54;13.00;99.90
38622;DHT22;24380;51.132;5.360;2023-04-24T15:41:21;12.80;99.90
38622;DHT22;24380;51.132;5.360;2023-04-24T15:43:49;12.80;99.90
38622;DHT22;24380;51.132;5.360;2023-04-24T15:46:16;12.80;99.90
38622;DHT22;24380;51.132;5.360;2023-04-24T15:48:44;12.60;99.90
38622;DHT22;24380;51.132;5.360;2023-04-24T15:51:11;12.40;99.90
38622;DHT22;24380;51.132;5.360;2023-04-24T15:53:39;12.40;99.90
38622;DHT22;24380;51.132;5.360;2023-04-24T15:56:06;12.40;99.90
38622;DHT22;24380;51.132;5.360;2023-04-24T15:58:35;12.30;99.90
38622;DHT22;24380;51.132;5.360;2023-04-24T16:01:02;12.40;99.90
38622;DHT22;24380;51.132;5.360;2023-04-24T16:03:30;12.40;99.90
38622;DHT22;24380;51.132;5.360;2023-04-24T16:05:57;12.30;99.90